Time;durP1;ratioP1;P1;durP2;ratioP2;P2;SDS_P1;SDS_P2;PMS_P1;PMS_P2;Temp;Humidity;BMP_temperature;BMP_pressure;BME280_temperature;BME280_humidity;BME280_pressure;Samples;Min_cycle;Max_cycle;Signal;HPM_P1;HPM_P2
2022/12/20 06:56:16;;;;;;;5.15;2.20;;;;;;;;;;10588335;27;20405;-86
2022/12/20 07:01:19;;;;;;;6.85;2.13;;;;;;;;;;10583630;28;20031;-86
2022/12/20 07:06:43;;;;;;;3.17;1.50;;;;;;;;;;10585559;28;20381;-86
2022/12/20 07:11:53;;;;;;;4.55;2.45;;;;;;;;;;10584142;28;20046;-86
2022/12/20 07:16:54;;;;;;;2.63;1.70;;;;;;;;;;10582510;28;20076;-86
2022/12/20 07:21:55;;;;;;;2.72;1.80;;;;;;;;;;10586117;28;20030;-85
2022/12/20 07:26:56;;;;;;;;;;;;;;;;;;10592902;28;20076;-86
2022/12/20 07:31:57;;;;;;;4.82;2.10;;;;;;;;;;10581409;28;19904;-86
2022/12/20 07:36:58;;;;;;;;;;;;;;;;;;10586420;28;20032;-86
2022/12/20 07:41:59;;;;;;;3.03;2.10;;;;;;;;;;10582254;28;20317;-86
2022/12/20 07:47:00;;;;;;;;;;;;;;;;;;10583583;28;20085;-86
2022/12/20 07:52:03;;;;;;;3.28;2.08;;;;;;;;;;10584118;28;20258;-86
2022/12/20 07:57:07;;;;;;;3.00;2.05;;;;;;;;;;10581687;28;20497;-86
2022/12/20 08:02:13;;;;;;;3.60;1.45;;;;;;;;;;10583830;28;20084;-85
2022/12/20 08:07:14;;;;;;;3.55;2.10;;;;;;;;;;10568182;28;20496;-85
2022/12/20 08:12:15;;;;;;;;;;;;;;;;;;10557075;28;20027;-84
2022/12/20 08:17:16;;;;;;;4.35;1.75;;;;;;;;;;10557998;28;19904;-83
2022/12/20 08:22:18;;;;;;;3.33;1.92;;;;;;;;;;10569067;28;20093;-86
2022/12/20 08:27:19;;;;;;;4.00;2.10;;;;;;;;;;10582933;28;20024;-86
2022/12/20 08:32:20;;;;;;;;;;;;;;;;;;10578929;28;20032;-86
2022/12/20 08:37:21;;;;;;;4.55;2.30;;;;;;;;;;10582187;28;19904;-86
2022/12/20 08:42:22;;;;;;;5.35;2.10;;;;;;;;;;10583562;28;20058;-86
2022/12/20 08:47:23;;;;;;;3.47;2.03;;;;;;;;;;10583118;28;20079;-86
2022/12/20 08:52:24;;;;;;;;;;;;;;;;;;10576475;28;20036;-86
2022/12/20 08:57:25;;;;;;;4.13;1.90;;;;;;;;;;10573263;28;19954;-85
2022/12/20 09:02:26;;;;;;;;;;;;;;;;;;10581528;28;20065;-86
2022/12/20 09:07:27;;;;;;;4.35;2.00;;;;;;;;;;10573202;28;19904;-87
2022/12/20 09:12:28;;;;;;;;;;;;;;;;;;10573454;28;20030;-86
2022/12/20 09:17:29;;;;;;;3.97;2.20;;;;;;;;;;10572861;28;19938;-86
2022/12/20 09:22:30;;;;;;;4.40;2.10;;;;;;;;;;10572059;28;20047;-86
2022/12/20 09:27:34;;;;;;;6.47;2.63;;;;;;;;;;10570928;28;20039;-86
2022/12/20 09:32:36;;;;;;;2.05;1.77;;;;;;;;;;10585576;28;20043;-83
2022/12/20 09:37:37;;;;;;;5.93;1.70;;;;;;;;;;10589484;28;20029;-86
2022/12/20 09:42:38;;;;;;;;;;;;;;;;;;10589287;28;20047;-85
2022/12/20 09:47:40;;;;;;;4.25;2.10;;;;;;;;;;10575866;28;19976;-85
2022/12/20 09:52:51;;;;;;;2.65;1.63;;;;;;;;;;10573799;28;20091;-87
2022/12/20 09:58:00;;;;;;;3.70;1.90;;;;;;;;;;10576442;28;20042;-82
2022/12/20 10:03:03;;;;;;;4.15;2.17;;;;;;;;;;10568680;28;20035;-85
2022/12/20 10:08:14;;;;;;;4.15;2.00;;;;;;;;;;10568242;28;20028;-86
2022/12/20 10:13:33;;;;;;;3.42;1.90;;;;;;;;;;10567316;28;20020;-84
2022/12/20 10:18:34;;;;;;;5.68;1.90;;;;;;;;;;10565129;28;20060;-85
2022/12/20 10:23:56;;;;;;;3.80;2.15;;;;;;;;;;10559947;28;20039;-86
2022/12/20 10:28:57;;;;;;;4.07;2.33;;;;;;;;;;10563660;28;20036;-86
2022/12/20 10:33:58;;;;;;;;;;;;;;;;;;10555008;22;20169;-79
2022/12/20 10:39:07;;;;;;;5.57;3.10;;;;;;;;;;10488300;28;20376;-79
2022/12/20 10:44:14;;;;;;;20.70;12.50;;;;;;;;;;10515436;28;20097;-82
2022/12/20 10:49:28;;;;;;;4.32;2.10;;;;;;;;;;10542784;28;20048;-79
2022/12/20 10:54:47;;;;;;;4.60;1.52;;;;;;;;;;10550304;28;20016;-81
2022/12/20 10:59:53;;;;;;;4.13;1.90;;;;;;;;;;10554593;28;20024;-81
2022/12/20 11:05:17;;;;;;;4.72;1.77;;;;;;;;;;10563714;28;20024;-81
2022/12/20 11:10:18;;;;;;;4.32;1.90;;;;;;;;;;10534424;28;20091;-81
2022/12/20 11:15:20;;;;;;;3.85;1.85;;;;;;;;;;10539985;28;20034;-80
2022/12/20 11:20:27;;;;;;;5.10;2.20;;;;;;;;;;10538727;28;20028;-82
2022/12/20 11:25:28;;;;;;;2.42;1.50;;;;;;;;;;10538693;28;20032;-80
2022/12/20 11:30:29;;;;;;;;;;;;;;;;;;10539615;28;20024;-80
2022/12/20 11:35:36;;;;;;;2.97;1.88;;;;;;;;;;10536256;28;19916;-80
2022/12/20 11:40:42;;;;;;;3.33;2.20;;;;;;;;;;10539961;28;20036;-79
2022/12/20 11:46:03;;;;;;;3.08;1.60;;;;;;;;;;10538310;28;20032;-80
2022/12/20 11:51:10;;;;;;;3.53;1.65;;;;;;;;;;10539136;28;20031;-81
2022/12/20 11:56:24;;;;;;;4.05;1.95;;;;;;;;;;10542050;28;20039;-80
2022/12/20 12:01:51;;;;;;;3.10;1.83;;;;;;;;;;10573699;28;20012;-78
2022/12/20 12:06:56;;;;;;;2.38;1.95;;;;;;;;;;10572781;28;20068;-78
2022/12/20 12:12:00;;;;;;;3.10;1.95;;;;;;;;;;10589984;28;20028;-79
2022/12/20 12:17:07;;;;;;;3.35;1.60;;;;;;;;;;10550504;28;20032;-83
2022/12/20 12:22:13;;;;;;;3.60;1.80;;;;;;;;;;10546710;28;20476;-82
2022/12/20 12:27:24;;;;;;;3.78;2.00;;;;;;;;;;10554325;28;20028;-81
2022/12/20 12:32:29;;;;;;;4.18;2.03;;;;;;;;;;10563901;28;20058;-81
2022/12/20 12:37:33;;;;;;;4.13;2.50;;;;;;;;;;10545752;28;20027;-81
2022/12/20 12:42:53;;;;;;;3.47;1.92;;;;;;;;;;10582565;28;20054;-80
2022/12/20 12:47:57;;;;;;;4.68;1.90;;;;;;;;;;10547658;28;20024;-81
2022/12/20 12:53:04;;;;;;;2.10;1.50;;;;;;;;;;10546408;28;20039;-80
2022/12/20 12:58:13;;;;;;;3.22;1.83;;;;;;;;;;10559449;28;20036;-80
2022/12/20 13:03:15;;;;;;;3.20;1.70;;;;;;;;;;10538285;28;20100;-80
2022/12/20 13:08:17;;;;;;;6.10;4.20;;;;;;;;;;10534727;28;20110;-80
2022/12/20 13:13:22;;;;;;;4.40;1.90;;;;;;;;;;10559111;28;20020;-81
2022/12/20 13:18:24;;;;;;;3.55;1.70;;;;;;;;;;10564984;28;20024;-82
2022/12/20 13:23:25;;;;;;;2.85;1.80;;;;;;;;;;10548687;28;20029;-81
2022/12/20 13:28:26;;;;;;;;;;;;;;;;;;10552454;28;20060;-81
2022/12/20 13:33:41;;;;;;;6.07;2.50;;;;;;;;;;10549668;28;20433;-79
2022/12/20 13:38:45;;;;;;;4.82;2.38;;;;;;;;;;10552856;28;20039;-82
2022/12/20 13:43:47;;;;;;;3.42;1.80;;;;;;;;;;10567418;28;20462;-79
2022/12/20 13:49:02;;;;;;;3.42;2.20;;;;;;;;;;10540289;28;20059;-80
2022/12/20 13:54:08;;;;;;;5.38;2.53;;;;;;;;;;10544232;28;20416;-81
2022/12/20 13:59:19;;;;;;;3.35;2.13;;;;;;;;;;10546584;28;20145;-78
2022/12/20 14:04:20;;;;;;;;;;;;;;;;;;10550288;28;20482;-78
2022/12/20 14:09:28;;;;;;;3.33;1.70;;;;;;;;;;10543811;28;19964;-78
2022/12/20 14:14:29;;;;;;;3.35;1.85;;;;;;;;;;10546735;28;20054;-79
2022/12/20 14:19:30;;;;;;;;;;;;;;;;;;10566502;28;20066;-79
2022/12/20 14:24:31;;;;;;;3.97;2.45;;;;;;;;;;10554176;28;19908;-79
2022/12/20 14:29:32;;;;;;;4.97;2.75;;;;;;;;;;10564820;28;20025;-79
2022/12/20 14:34:35;;;;;;;5.05;2.10;;;;;;;;;;10546871;28;20111;-79
2022/12/20 14:39:36;;;;;;;3.92;1.90;;;;;;;;;;10544058;28;20049;-80
2022/12/20 14:44:37;;;;;;;9.30;3.40;;;;;;;;;;10564243;28;20031;-81
2022/12/20 14:49:39;;;;;;;3.28;2.10;;;;;;;;;;10546061;28;20193;-78
2022/12/20 14:54:48;;;;;;;4.28;2.20;;;;;;;;;;10548792;28;20028;-79
2022/12/20 14:59:57;;;;;;;2.88;1.77;;;;;;;;;;10576147;28;20019;-79
2022/12/20 15:05:00;;;;;;;3.60;2.60;;;;;;;;;;10547011;28;20032;-80
2022/12/20 15:10:07;;;;;;;4.80;2.22;;;;;;;;;;10546212;28;20020;-80
2022/12/20 15:15:13;;;;;;;4.18;2.30;;;;;;;;;;10532469;28;20032;-79
2022/12/20 15:20:15;;;;;;;4.15;2.75;;;;;;;;;;10553885;28;20478;-79
2022/12/20 15:25:17;;;;;;;5.75;2.92;;;;;;;;;;10552512;28;20413;-79
2022/12/20 15:30:18;;;;;;;3.25;1.67;;;;;;;;;;10573510;28;20027;-78
2022/12/20 15:35:19;;;;;;;4.55;2.03;;;;;;;;;;10559075;28;20032;-79
2022/12/20 15:40:20;;;;;;;6.18;2.20;;;;;;;;;;10546041;28;20020;-79
2022/12/20 15:45:21;;;;;;;4.00;2.45;;;;;;;;;;10561784;28;20020;-78
2022/12/20 15:50:22;;;;;;;6.32;2.30;;;;;;;;;;10578869;28;20028;-78
2022/12/20 15:55:23;;;;;;;4.93;1.95;;;;;;;;;;10578732;28;20028;-79
2022/12/20 16:00:24;;;;;;;4.88;1.73;;;;;;;;;;10562443;28;20030;-82
2022/12/20 16:05:25;;;;;;;7.85;2.17;;;;;;;;;;10555502;28;20057;-79
2022/12/20 16:10:26;;;;;;;5.35;2.45;;;;;;;;;;10557396;28;20047;-79
2022/12/20 16:15:28;;;;;;;4.40;1.70;;;;;;;;;;10557536;28;20036;-81
2022/12/20 16:20:29;;;;;;;4.63;2.33;;;;;;;;;;10549706;28;20044;-80
2022/12/20 16:25:34;;;;;;;5.47;2.10;;;;;;;;;;10552978;28;20065;-81
2022/12/20 16:30:35;;;;;;;4.20;2.38;;;;;;;;;;10552736;28;20057;-80
2022/12/20 16:41:56;;;;;;;6.00;2.70;;;;;;;;;;10561314;28;20024;-86
2022/12/20 16:47:20;;;;;;;3.15;2.25;;;;;;;;;;10501174;28;20048;-88
2022/12/20 17:04:22;;;;;;;3.22;2.25;;;;;;;;;;10508053;28;20036;-86
2022/12/20 17:09:45;;;;;;;3.67;1.90;;;;;;;;;;10379224;28;20034;-86
2022/12/20 17:15:11;;;;;;;3.58;1.90;;;;;;;;;;10483152;28;20037;-86
2022/12/20 17:20:32;;;;;;;3.65;2.08;;;;;;;;;;10479032;28;20029;-86
2022/12/20 17:25:34;;;;;;;6.35;2.63;;;;;;;;;;10496413;28;20051;-83
2022/12/20 17:30:49;;;;;;;7.32;3.38;;;;;;;;;;10507750;28;20028;-87
2022/12/20 17:35:53;;;;;;;4.80;2.50;;;;;;;;;;10502892;28;20044;-86
2022/12/20 19:17:22;;;;;;;3.72;2.53;;;;;;;;;;10461117;28;20033;-86
2022/12/20 19:51:24;;;;;;;5.18;3.40;;;;;;;;;;10483532;28;20542;-86
